createdAt,value
2018-08-30T00:01:53.157Z,99.90
2018-08-30T00:04:21.474Z,99.90
2018-08-30T00:06:49.749Z,99.90
2018-08-30T00:09:18.004Z,99.90
2018-08-30T00:11:46.296Z,99.90
2018-08-30T00:14:14.560Z,99.90
2018-08-30T00:16:42.854Z,99.90
2018-08-30T00:19:11.113Z,99.90
2018-08-30T00:21:39.402Z,99.90
2018-08-30T00:24:07.682Z,99.90
2018-08-30T00:26:35.973Z,99.90
2018-08-30T00:29:04.301Z,99.90
2018-08-30T00:31:32.589Z,99.90
2018-08-30T00:34:00.905Z,99.90
2018-08-30T00:36:29.188Z,99.90
2018-08-30T00:38:57.468Z,99.90
2018-08-30T00:41:25.884Z,99.90
2018-08-30T00:43:54.120Z,99.90
2018-08-30T00:46:22.405Z,99.90
2018-08-30T00:48:50.684Z,99.90
2018-08-30T00:51:19.034Z,99.90
2018-08-30T00:53:47.301Z,99.90
2018-08-30T00:56:15.582Z,99.90
2018-08-30T00:58:43.880Z,99.90
2018-08-30T01:01:12.182Z,99.90
2018-08-30T01:03:40.464Z,99.90
2018-08-30T01:06:08.769Z,99.90
2018-08-30T01:08:37.034Z,99.90
2018-08-30T01:11:05.435Z,99.90
2018-08-30T01:13:33.713Z,99.90
2018-08-30T01:16:02.010Z,99.90
2018-08-30T01:18:30.277Z,99.90
2018-08-30T01:20:58.660Z,99.90
2018-08-30T01:23:26.953Z,99.90
2018-08-30T01:25:55.243Z,99.90
2018-08-30T01:28:23.550Z,99.90
2018-08-30T01:30:51.873Z,99.90
2018-08-30T01:33:20.158Z,99.90
2018-08-30T01:35:48.426Z,99.90
2018-08-30T01:38:16.700Z,99.90
2018-08-30T01:40:44.981Z,99.90
2018-08-30T01:43:13.259Z,99.90
2018-08-30T01:45:41.577Z,99.90
2018-08-30T01:48:09.849Z,99.90
2018-08-30T01:50:38.125Z,99.90
2018-08-30T01:53:06.405Z,99.90
2018-08-30T01:55:34.769Z,99.90
2018-08-30T01:58:03.065Z,99.90
2018-08-30T02:00:31.332Z,99.90
2018-08-30T02:02:59.624Z,99.90
2018-08-30T02:05:27.906Z,99.90
2018-08-30T02:07:56.184Z,99.90
2018-08-30T02:10:24.456Z,99.90
2018-08-30T02:12:52.719Z,99.90
2018-08-30T02:15:21.068Z,99.90
2018-08-30T02:17:49.356Z,99.90
2018-08-30T02:20:17.634Z,99.90
2018-08-30T02:22:45.905Z,99.90
2018-08-30T02:25:14.182Z,99.90
2018-08-30T02:27:42.464Z,99.90
2018-08-30T02:30:10.788Z,99.90
2018-08-30T02:32:39.072Z,99.90
2018-08-30T02:35:07.381Z,99.90
2018-08-30T02:37:35.665Z,99.90
2018-08-30T02:40:03.993Z,99.90
2018-08-30T02:42:32.262Z,99.90
2018-08-30T02:45:00.553Z,99.90
2018-08-30T02:47:28.853Z,99.90
2018-08-30T02:49:57.120Z,99.90
2018-08-30T02:52:25.397Z,99.90
2018-08-30T02:54:53.685Z,99.90
2018-08-30T02:57:21.949Z,99.90
2018-08-30T02:59:50.228Z,99.90
2018-08-30T03:02:18.505Z,99.90
2018-08-30T03:04:46.780Z,99.90
2018-08-30T03:07:15.073Z,99.90
2018-08-30T03:09:43.348Z,99.90
2018-08-30T03:12:11.632Z,99.90
2018-08-30T03:14:39.903Z,99.90
2018-08-30T03:17:08.202Z,99.90
2018-08-30T03:19:36.481Z,99.90
2018-08-30T03:22:04.756Z,99.90
2018-08-30T03:24:33.033Z,99.90
2018-08-30T03:27:01.316Z,99.90
2018-08-30T03:29:29.617Z,99.90
2018-08-30T03:31:57.913Z,99.90
2018-08-30T03:34:26.217Z,99.90
2018-08-30T03:36:54.516Z,99.90
2018-08-30T03:39:23.676Z,99.90
2018-08-30T03:41:51.957Z,99.90
2018-08-30T03:44:20.241Z,99.90
2018-08-30T03:46:48.601Z,99.90
2018-08-30T03:49:16.792Z,99.90
2018-08-30T03:51:45.068Z,99.90
2018-08-30T03:54:13.373Z,99.90
2018-08-30T03:56:41.666Z,99.90
2018-08-30T03:59:10.025Z,99.90
2018-08-30T04:01:38.297Z,99.90
2018-08-30T04:04:06.610Z,99.90
2018-08-30T04:06:34.864Z,99.90
2018-08-30T04:09:03.337Z,99.90
2018-08-30T04:11:31.604Z,99.90
2018-08-30T04:13:59.876Z,99.90
2018-08-30T04:16:28.144Z,99.90
2018-08-30T04:19:05.020Z,99.90
2018-08-30T04:21:33.721Z,99.90
2018-08-30T04:24:02.606Z,99.90
2018-08-30T04:26:31.400Z,99.90
2018-08-30T04:29:00.464Z,99.90
2018-08-30T04:31:28.836Z,99.90
2018-08-30T04:33:57.078Z,99.90
2018-08-30T04:36:26.013Z,99.90
2018-08-30T04:38:54.893Z,99.90
2018-08-30T04:41:23.188Z,99.90
2018-08-30T04:43:51.467Z,99.90
2018-08-30T04:46:19.770Z,99.90
2018-08-30T04:48:48.041Z,99.90
2018-08-30T04:51:16.328Z,99.90
2018-08-30T04:53:44.596Z,99.90
2018-08-30T04:56:12.876Z,99.90
2018-08-30T04:58:41.163Z,99.90
2018-08-30T05:01:09.444Z,99.90
2018-08-30T05:03:37.742Z,99.90
2018-08-30T05:06:06.065Z,99.90
2018-08-30T05:08:34.365Z,99.90
2018-08-30T05:11:02.667Z,99.90
2018-08-30T05:13:30.925Z,99.90
2018-08-30T05:15:59.224Z,99.90
2018-08-30T05:18:27.505Z,99.90
2018-08-30T05:20:55.789Z,99.90
2018-08-30T05:23:24.078Z,99.90
2018-08-30T05:25:52.345Z,99.90
2018-08-30T05:28:20.620Z,99.90
2018-08-30T05:30:48.925Z,99.90
2018-08-30T05:33:17.202Z,99.90
2018-08-30T05:35:45.516Z,99.90
2018-08-30T05:38:13.796Z,99.90
2018-08-30T05:40:42.061Z,99.90
2018-08-30T05:43:10.460Z,99.90
2018-08-30T05:45:38.737Z,99.90
2018-08-30T05:48:07.037Z,99.90
2018-08-30T05:50:35.329Z,99.90
2018-08-30T05:53:03.694Z,99.90
2018-08-30T05:55:31.957Z,99.90
2018-08-30T05:58:00.288Z,99.90
2018-08-30T06:00:28.584Z,99.90
2018-08-30T06:02:56.852Z,99.90
2018-08-30T06:05:25.181Z,99.90
2018-08-30T06:07:53.449Z,99.90
2018-08-30T06:10:21.744Z,99.90
2018-08-30T06:12:50.059Z,99.90
2018-08-30T06:15:18.336Z,99.90
2018-08-30T06:17:46.640Z,99.90
2018-08-30T06:20:14.916Z,99.90
2018-08-30T06:22:43.181Z,99.90
2018-08-30T06:25:11.448Z,99.90
2018-08-30T06:27:39.742Z,99.90
2018-08-30T06:30:08.032Z,99.90
2018-08-30T06:32:36.326Z,99.90
2018-08-30T06:35:04.640Z,99.90
2018-08-30T06:37:32.961Z,99.90
2018-08-30T06:40:01.231Z,99.90
2018-08-30T06:42:29.497Z,99.90
2018-08-30T06:44:57.757Z,99.90
2018-08-30T06:47:26.043Z,99.90
2018-08-30T06:49:54.314Z,99.90
2018-08-30T06:52:22.580Z,99.90
2018-08-30T06:54:50.856Z,99.90
2018-08-30T06:57:19.129Z,99.90
2018-08-30T06:59:47.429Z,99.90
2018-08-30T07:02:15.705Z,99.90
2018-08-30T07:04:44.772Z,99.90
2018-08-30T07:07:13.051Z,99.90
2018-08-30T07:09:41.363Z,99.90
2018-08-30T07:12:09.804Z,99.90
2018-08-30T07:14:38.139Z,99.90
2018-08-30T07:17:06.497Z,99.90
2018-08-30T07:19:34.768Z,99.90
2018-08-30T07:22:03.063Z,99.90
2018-08-30T07:24:31.341Z,99.90
2018-08-30T07:26:59.814Z,99.90
2018-08-30T07:29:28.089Z,99.90
2018-08-30T07:31:56.366Z,99.90
2018-08-30T07:34:24.768Z,99.90
2018-08-30T07:36:52.916Z,99.90
2018-08-30T07:39:21.179Z,99.90
2018-08-30T07:41:49.484Z,99.90
2018-08-30T07:44:17.873Z,99.90
2018-08-30T07:46:46.008Z,99.90
2018-08-30T07:49:14.304Z,99.90
2018-08-30T07:51:42.588Z,99.90
2018-08-30T07:54:10.857Z,99.90
2018-08-30T07:56:39.134Z,99.90
2018-08-30T07:59:07.447Z,99.90
2018-08-30T08:01:35.752Z,99.90
2018-08-30T08:04:04.035Z,99.90
2018-08-30T08:06:32.318Z,99.90
2018-08-30T08:09:00.597Z,99.90
2018-08-30T08:11:28.904Z,99.90
2018-08-30T08:13:57.344Z,99.90
2018-08-30T08:16:25.625Z,99.90
2018-08-30T08:18:53.916Z,99.90
2018-08-30T08:21:22.196Z,99.90
2018-08-30T08:23:50.461Z,99.90
2018-08-30T08:26:18.736Z,99.90
2018-08-30T08:28:47.002Z,99.90
2018-08-30T08:31:15.325Z,99.90
2018-08-30T08:33:43.553Z,99.90
2018-08-30T08:36:11.877Z,99.90
2018-08-30T08:38:40.174Z,99.90
2018-08-30T08:41:08.453Z,99.90
2018-08-30T08:43:36.732Z,99.90
2018-08-30T08:46:05.025Z,99.90
2018-08-30T08:48:33.306Z,99.90
2018-08-30T08:51:01.657Z,99.90
2018-08-30T08:53:29.923Z,99.90
2018-08-30T08:55:58.201Z,99.90
2018-08-30T08:58:26.485Z,99.90
2018-08-30T09:00:54.783Z,99.90
2018-08-30T09:03:23.056Z,99.90
2018-08-30T09:05:51.459Z,99.90
2018-08-30T09:08:19.756Z,99.90
2018-08-30T09:10:48.028Z,99.90
2018-08-30T09:13:16.304Z,99.90
2018-08-30T09:15:44.568Z,99.90
2018-08-30T09:18:12.864Z,99.90
2018-08-30T09:20:41.128Z,99.90
2018-08-30T09:23:09.448Z,99.90
2018-08-30T09:25:37.736Z,99.90
2018-08-30T09:28:06.037Z,99.90
2018-08-30T09:30:34.316Z,99.90
2018-08-30T09:33:02.581Z,99.90
2018-08-30T09:35:30.869Z,99.90
2018-08-30T09:37:59.160Z,99.90
2018-08-30T09:40:27.443Z,99.90
2018-08-30T09:42:55.769Z,99.90
2018-08-30T09:45:24.732Z,99.90
2018-08-30T09:47:53.208Z,99.90
2018-08-30T09:50:21.587Z,99.90
2018-08-30T09:52:49.864Z,99.90
2018-08-30T09:55:18.182Z,99.90
2018-08-30T09:57:46.453Z,99.90
2018-08-30T10:00:18.946Z,99.90
2018-08-30T10:02:49.596Z,99.90
2018-08-30T10:05:18.344Z,99.90
2018-08-30T10:07:46.636Z,99.90
2018-08-30T10:10:14.911Z,99.10
2018-08-30T10:12:43.181Z,98.90
2018-08-30T10:15:11.740Z,97.90
2018-08-30T10:17:40.041Z,98.70
2018-08-30T10:20:08.356Z,99.10
2018-08-30T10:22:36.664Z,98.20
2018-08-30T10:25:04.986Z,97.60
2018-08-30T10:27:33.265Z,98.10
2018-08-30T10:30:01.600Z,98.00
2018-08-30T10:32:29.860Z,98.70
2018-08-30T10:34:58.240Z,98.60
2018-08-30T10:37:26.513Z,96.70
2018-08-30T10:39:54.784Z,97.20
2018-08-30T10:42:23.042Z,98.40
2018-08-30T10:44:51.339Z,98.40
2018-08-30T10:47:19.640Z,99.70
2018-08-30T10:49:47.983Z,97.20
2018-08-30T10:52:16.180Z,97.30
2018-08-30T10:54:44.453Z,96.10
2018-08-30T10:57:12.720Z,96.60
2018-08-30T10:59:41.012Z,96.40
2018-08-30T11:02:09.320Z,97.10
2018-08-30T11:04:37.604Z,97.60
2018-08-30T11:07:05.934Z,98.40
2018-08-30T11:09:34.194Z,97.00
2018-08-30T11:12:02.477Z,96.20
2018-08-30T11:14:30.748Z,94.40
2018-08-30T11:16:59.012Z,95.40
2018-08-30T11:19:27.504Z,95.50
2018-08-30T11:21:55.753Z,96.50
2018-08-30T11:24:24.034Z,95.60
2018-08-30T11:26:52.302Z,97.80
2018-08-30T11:29:20.572Z,97.50
2018-08-30T11:31:48.849Z,98.30
2018-08-30T11:34:17.108Z,98.60
2018-08-30T11:36:45.393Z,99.80
2018-08-30T11:39:13.679Z,99.70
2018-08-30T11:41:42.012Z,99.90
2018-08-30T11:44:10.233Z,98.90
2018-08-30T11:46:38.541Z,98.80
2018-08-30T11:49:06.811Z,98.50
2018-08-30T11:51:35.117Z,99.00
2018-08-30T11:54:03.428Z,99.10
2018-08-30T11:56:31.689Z,99.20
2018-08-30T11:59:00.017Z,99.20
2018-08-30T12:01:28.300Z,96.60
2018-08-30T12:03:57.056Z,94.40
2018-08-30T12:06:25.393Z,95.70
2018-08-30T12:08:53.718Z,93.50
2018-08-30T12:11:22.089Z,94.10
2018-08-30T12:13:50.401Z,93.90
2018-08-30T12:16:18.677Z,95.40
2018-08-30T12:18:46.998Z,95.50
2018-08-30T12:21:15.272Z,93.50
2018-08-30T12:23:43.569Z,93.80
2018-08-30T12:26:11.872Z,94.70
2018-08-30T12:28:40.725Z,96.30
2018-08-30T12:31:08.953Z,96.80
2018-08-30T12:33:37.232Z,95.50
2018-08-30T12:36:05.840Z,96.70
2018-08-30T12:38:34.124Z,95.70
2018-08-30T12:41:02.364Z,95.60
2018-08-30T12:43:30.676Z,97.40
2018-08-30T12:45:58.926Z,97.70
2018-08-30T12:48:27.282Z,98.10
2018-08-30T12:50:55.623Z,98.70
2018-08-30T12:53:23.925Z,99.40
2018-08-30T12:55:52.178Z,99.30
2018-08-30T12:58:20.690Z,99.60
2018-08-30T13:00:48.902Z,99.90
2018-08-30T13:03:17.255Z,99.90
2018-08-30T13:05:45.827Z,99.90
2018-08-30T13:08:14.049Z,99.80
2018-08-30T13:10:42.371Z,99.90
2018-08-30T13:13:10.735Z,99.90
2018-08-30T13:15:38.987Z,99.90
2018-08-30T13:18:07.200Z,99.90
2018-08-30T13:20:35.539Z,99.90
2018-08-30T13:23:03.852Z,99.90
2018-08-30T13:25:32.197Z,99.90
2018-08-30T13:28:00.407Z,99.90
2018-08-30T13:30:28.757Z,99.90
2018-08-30T13:32:57.125Z,99.90
2018-08-30T13:35:25.652Z,99.90
2018-08-30T13:37:53.502Z,99.90
2018-08-30T13:40:22.111Z,99.90
2018-08-30T13:42:50.329Z,99.90
2018-08-30T13:45:18.415Z,99.90
2018-08-30T13:47:46.639Z,99.90
2018-08-30T13:50:15.157Z,99.90
2018-08-30T13:52:43.463Z,99.90
2018-08-30T13:55:11.660Z,99.90
2018-08-30T13:57:40.083Z,99.90
2018-08-30T14:00:08.488Z,99.90
2018-08-30T14:02:36.597Z,99.90
2018-08-30T14:05:04.837Z,99.90
2018-08-30T14:07:32.939Z,99.90
2018-08-30T14:10:01.565Z,99.90
2018-08-30T14:12:29.579Z,99.90
2018-08-30T14:14:57.805Z,99.90
2018-08-30T14:17:25.830Z,99.90
2018-08-30T14:19:54.106Z,99.90
2018-08-30T14:22:22.404Z,99.90
2018-08-30T14:24:50.958Z,99.90
2018-08-30T14:27:19.143Z,99.90
2018-08-30T14:29:47.373Z,99.90
2018-08-30T14:32:15.650Z,99.90
2018-08-30T14:34:43.932Z,99.90
2018-08-30T14:37:12.188Z,99.90
2018-08-30T14:39:40.460Z,99.90
2018-08-30T14:42:08.739Z,99.90
2018-08-30T14:44:37.021Z,99.90
2018-08-30T14:47:05.772Z,99.90
2018-08-30T14:49:34.057Z,99.90
2018-08-30T14:52:02.395Z,99.90
2018-08-30T14:54:30.717Z,99.90
2018-08-30T14:56:59.061Z,99.90
2018-08-30T14:59:27.439Z,99.90
2018-08-30T15:01:55.583Z,99.90
2018-08-30T15:04:23.877Z,99.90
2018-08-30T15:06:52.200Z,99.90
2018-08-30T15:09:20.491Z,99.90
2018-08-30T15:11:48.772Z,99.90
2018-08-30T15:14:17.137Z,99.90
2018-08-30T15:16:45.337Z,99.90
2018-08-30T15:19:13.604Z,99.90
2018-08-30T15:21:41.876Z,99.90
2018-08-30T15:24:10.154Z,99.90
2018-08-30T15:26:38.525Z,99.90
2018-08-30T15:29:06.784Z,99.90
2018-08-30T15:31:34.999Z,99.90
2018-08-30T15:34:03.368Z,99.90
2018-08-30T15:36:31.548Z,99.90
2018-08-30T15:38:59.847Z,99.90
2018-08-30T15:41:28.223Z,99.90
2018-08-30T15:43:56.457Z,99.90
2018-08-30T15:46:24.784Z,99.90
2018-08-30T15:48:53.279Z,99.90
2018-08-30T15:51:21.481Z,99.90
2018-08-30T15:53:49.863Z,99.90
2018-08-30T15:56:18.019Z,99.90
2018-08-30T15:58:47.155Z,99.90
2018-08-30T16:01:15.425Z,99.90
2018-08-30T16:03:50.276Z,99.90
2018-08-30T16:06:18.564Z,99.90
2018-08-30T16:08:46.833Z,99.90
2018-08-30T16:11:15.137Z,99.90
2018-08-30T16:13:43.388Z,99.90
2018-08-30T16:16:11.665Z,99.90
2018-08-30T16:18:40.085Z,99.90
2018-08-30T16:21:08.229Z,99.90
2018-08-30T16:23:37.316Z,99.90
2018-08-30T16:26:05.638Z,99.90
2018-08-30T16:28:34.680Z,99.90
2018-08-30T16:31:03.005Z,99.90
2018-08-30T16:33:31.260Z,99.90
2018-08-30T16:35:59.640Z,99.90
2018-08-30T16:38:27.960Z,99.90
2018-08-30T16:40:56.265Z,99.90
2018-08-30T16:43:24.574Z,99.90
2018-08-30T16:45:53.152Z,99.90
2018-08-30T16:48:21.493Z,99.90
2018-08-30T16:50:49.765Z,99.90
2018-08-30T16:53:24.784Z,99.90
2018-08-30T16:55:52.981Z,99.90
2018-08-30T16:58:21.257Z,99.90
2018-08-30T17:00:49.512Z,99.90
2018-08-30T17:03:17.781Z,99.90
2018-08-30T17:05:46.184Z,99.90
2018-08-30T17:08:14.370Z,99.90
2018-08-30T17:10:42.638Z,99.90
2018-08-30T17:13:10.945Z,99.90
2018-08-30T17:15:39.204Z,99.90
2018-08-30T17:18:07.490Z,99.90
2018-08-30T17:20:38.860Z,99.90
2018-08-30T17:23:07.133Z,99.90
2018-08-30T17:25:35.426Z,99.90
2018-08-30T17:28:03.702Z,99.90
2018-08-30T17:30:31.980Z,99.90
2018-08-30T17:33:00.270Z,99.90
2018-08-30T17:35:28.529Z,99.90
2018-08-30T17:37:56.813Z,99.90
2018-08-30T17:40:25.279Z,99.90
2018-08-30T17:42:53.576Z,99.90
2018-08-30T17:45:22.197Z,99.90
2018-08-30T17:47:50.388Z,99.90
2018-08-30T17:50:19.114Z,99.90
2018-08-30T17:52:47.356Z,99.90
2018-08-30T17:55:15.674Z,99.90
2018-08-30T17:57:44.000Z,99.90
2018-08-30T18:00:13.409Z,99.90
2018-08-30T18:02:42.806Z,99.90
2018-08-30T18:05:11.133Z,99.90
2018-08-30T18:07:39.449Z,99.90
2018-08-30T18:10:08.678Z,99.90
2018-08-30T18:12:37.404Z,99.90
2018-08-30T18:15:06.669Z,99.90
2018-08-30T18:17:34.949Z,99.90
2018-08-30T18:20:03.271Z,99.90
2018-08-30T18:22:31.549Z,99.90
2018-08-30T18:24:59.842Z,99.90
2018-08-30T18:27:28.120Z,99.90
2018-08-30T18:29:56.405Z,99.90
2018-08-30T18:32:24.678Z,99.90
2018-08-30T18:34:53.211Z,99.90
2018-08-30T18:37:27.809Z,99.90
2018-08-30T18:39:56.101Z,99.90
2018-08-30T18:42:24.388Z,99.90
2018-08-30T18:44:52.674Z,99.90
2018-08-30T18:47:20.946Z,99.90
2018-08-30T18:49:49.295Z,99.90
2018-08-30T18:52:17.577Z,99.90
2018-08-30T18:54:45.838Z,99.90
2018-08-30T18:57:14.105Z,99.90
2018-08-30T18:59:42.401Z,99.90
2018-08-30T19:02:10.665Z,99.90
2018-08-30T19:04:38.917Z,99.90
2018-08-30T19:07:07.201Z,99.90
2018-08-30T19:09:35.485Z,99.90
2018-08-30T19:12:03.764Z,99.90
2018-08-30T19:14:32.037Z,99.90
2018-08-30T19:17:05.604Z,99.90
2018-08-30T19:19:35.877Z,99.90
2018-08-30T19:22:04.212Z,99.90
2018-08-30T19:25:41.265Z,99.90
2018-08-30T19:28:09.570Z,99.90
2018-08-30T19:30:37.924Z,99.90
2018-08-30T19:33:06.236Z,99.90
2018-08-30T19:35:41.962Z,99.90
2018-08-30T19:38:10.296Z,99.90
2018-08-30T19:40:43.929Z,99.90
2018-08-30T19:43:12.241Z,99.90
2018-08-30T19:45:40.604Z,99.90
2018-08-30T19:48:08.913Z,99.90
2018-08-30T19:50:37.221Z,99.90
2018-08-30T19:53:05.552Z,99.90
2018-08-30T19:55:33.844Z,99.90
2018-08-30T19:58:02.150Z,99.90
2018-08-30T20:00:30.440Z,99.90
2018-08-30T20:02:58.736Z,99.90
2018-08-30T20:05:27.042Z,99.90
2018-08-30T20:07:55.345Z,99.90
2018-08-30T20:10:23.708Z,99.90
2018-08-30T20:12:51.998Z,99.90
2018-08-30T20:15:20.333Z,99.90
2018-08-30T20:17:48.618Z,99.90
2018-08-30T20:20:16.917Z,99.90
2018-08-30T20:22:45.233Z,99.90
2018-08-30T20:25:13.534Z,99.90
2018-08-30T20:27:41.844Z,99.90
2018-08-30T20:30:10.150Z,99.90
2018-08-30T20:32:38.448Z,99.90
2018-08-30T20:35:06.767Z,99.90
2018-08-30T20:37:35.064Z,99.90
2018-08-30T20:40:03.387Z,99.90
2018-08-30T20:42:31.668Z,99.90
2018-08-30T20:44:59.948Z,99.90
2018-08-30T20:47:28.245Z,99.90
2018-08-30T20:49:56.601Z,99.90
2018-08-30T20:52:24.924Z,99.90
2018-08-30T20:54:53.305Z,99.90
2018-08-30T20:57:21.605Z,99.90
2018-08-30T20:59:49.917Z,99.90
2018-08-30T21:02:18.199Z,99.90
2018-08-30T21:04:46.493Z,99.90
2018-08-30T21:07:14.784Z,99.90
2018-08-30T21:09:43.083Z,99.90
2018-08-30T21:12:11.372Z,99.90
2018-08-30T21:14:39.665Z,99.90
2018-08-30T21:17:07.972Z,99.90
2018-08-30T21:19:36.494Z,99.90
2018-08-30T21:22:04.809Z,99.90
2018-08-30T21:24:33.096Z,99.90
2018-08-30T21:27:01.396Z,99.90
2018-08-30T21:29:29.685Z,99.90
2018-08-30T21:31:57.969Z,99.90
2018-08-30T21:34:26.267Z,99.90
2018-08-30T21:36:54.564Z,99.90
2018-08-30T21:39:22.856Z,99.90
2018-08-30T21:41:51.152Z,99.90
2018-08-30T21:44:19.437Z,99.90
2018-08-30T21:46:47.758Z,99.90
2018-08-30T21:49:16.065Z,99.90
2018-08-30T21:51:44.424Z,99.90
2018-08-30T21:54:12.713Z,99.90
2018-08-30T21:56:41.006Z,99.90
2018-08-30T21:59:09.293Z,99.90
2018-08-30T22:01:37.591Z,99.90
2018-08-30T22:04:05.900Z,99.90
2018-08-30T22:06:34.178Z,99.90
2018-08-30T22:09:02.499Z,99.90
2018-08-30T22:11:30.792Z,99.90
2018-08-30T22:13:59.110Z,99.90
2018-08-30T22:16:27.437Z,99.90
2018-08-30T22:18:55.753Z,99.90
2018-08-30T22:21:24.052Z,99.90
2018-08-30T22:23:52.374Z,99.90
2018-08-30T22:26:20.692Z,99.90
2018-08-30T22:28:48.989Z,99.90
2018-08-30T22:31:17.287Z,99.90
2018-08-30T22:33:45.592Z,99.90
2018-08-30T22:36:13.940Z,99.90
2018-08-30T22:38:42.228Z,99.90
2018-08-30T22:41:10.508Z,99.90
2018-08-30T22:43:38.801Z,99.90
2018-08-30T22:46:07.077Z,99.90
2018-08-30T22:48:35.385Z,99.90
2018-08-30T22:51:03.688Z,99.90
2018-08-30T22:53:31.985Z,99.90
2018-08-30T22:56:00.277Z,99.90
2018-08-30T22:58:28.572Z,99.90
2018-08-30T23:00:56.857Z,99.90
2018-08-30T23:03:25.164Z,99.90
2018-08-30T23:05:53.482Z,99.90
2018-08-30T23:08:21.757Z,99.90
2018-08-30T23:10:50.049Z,99.90
2018-08-30T23:13:18.400Z,99.90
2018-08-30T23:15:46.717Z,99.90
2018-08-30T23:18:15.028Z,99.90
2018-08-30T23:20:43.343Z,99.90
2018-08-30T23:23:11.676Z,99.90
2018-08-30T23:25:39.977Z,99.90
2018-08-30T23:28:08.264Z,99.90
2018-08-30T23:30:36.719Z,99.90
2018-08-30T23:33:04.898Z,99.90
2018-08-30T23:35:33.192Z,99.90
2018-08-30T23:38:01.485Z,99.90
2018-08-30T23:40:29.769Z,99.90
2018-08-30T23:42:58.064Z,99.90
2018-08-30T23:45:26.348Z,99.90
2018-08-30T23:47:54.648Z,99.90
2018-08-30T23:50:22.965Z,99.90
2018-08-30T23:52:51.261Z,99.90
2018-08-30T23:55:19.553Z,99.90
2018-08-30T23:57:59.285Z,99.90
